createdAt,value
2018-01-22T00:02:25.291Z,9.95
2018-01-22T00:04:52.812Z,10.63
2018-01-22T00:07:21.146Z,9.32
2018-01-22T00:09:48.729Z,9.52
2018-01-22T00:12:16.319Z,8.88
2018-01-22T00:14:43.870Z,8.05
2018-01-22T00:17:11.447Z,9.25
2018-01-22T00:19:39.069Z,9.45
2018-01-22T00:22:06.650Z,8.25
2018-01-22T00:24:34.174Z,8.88
2018-01-22T00:27:01.820Z,8.45
2018-01-22T00:29:29.490Z,9.38
2018-01-22T00:31:57.083Z,8.82
2018-01-22T00:34:25.483Z,9.48
2018-01-22T00:36:54.716Z,9.00
2018-01-22T00:39:23.193Z,8.40
2018-01-22T00:41:50.761Z,7.72
2018-01-22T00:44:18.333Z,8.80
2018-01-22T00:46:45.864Z,7.90
2018-01-22T00:49:13.424Z,7.72
2018-01-22T00:51:41.127Z,8.25
2018-01-22T00:54:08.732Z,7.93
2018-01-22T00:56:36.293Z,9.02
2018-01-22T00:59:04.412Z,8.48
2018-01-22T01:01:31.981Z,8.25
2018-01-22T01:04:00.245Z,7.35
2018-01-22T01:06:27.806Z,7.57
2018-01-22T01:08:55.448Z,8.32
2018-01-22T01:11:23.231Z,7.68
2018-01-22T01:13:50.806Z,7.70
2018-01-22T01:16:18.368Z,7.47
2018-01-22T01:18:46.162Z,8.43
2018-01-22T01:21:14.486Z,6.90
2018-01-22T01:23:42.100Z,8.55
2018-01-22T01:26:09.712Z,6.65
2018-01-22T01:28:37.323Z,8.82
2018-01-22T01:31:05.668Z,7.53
2018-01-22T01:33:33.212Z,7.93
2018-01-22T01:36:00.774Z,7.82
2018-01-22T01:38:28.929Z,8.40
2018-01-22T01:40:56.494Z,9.05
2018-01-22T01:43:24.101Z,6.90
2018-01-22T01:45:52.446Z,7.25
2018-01-22T01:48:20.052Z,6.57
2018-01-22T01:50:47.644Z,6.20
2018-01-22T01:53:15.388Z,7.15
2018-01-22T01:55:42.938Z,5.90
2018-01-22T01:58:11.284Z,6.35
2018-01-22T02:00:38.901Z,6.15
2018-01-22T02:03:06.432Z,6.03
2018-01-22T02:05:33.999Z,5.40
2018-01-22T02:08:01.550Z,5.65
2018-01-22T02:10:29.887Z,5.68
2018-01-22T02:12:57.472Z,5.90
2018-01-22T02:15:25.147Z,6.20
2018-01-22T02:17:52.674Z,5.60
2018-01-22T02:20:20.237Z,5.12
2018-01-22T02:22:47.803Z,5.75
2018-01-22T02:25:15.652Z,5.85
2018-01-22T02:27:44.805Z,5.55
2018-01-22T02:30:12.382Z,5.32
2018-01-22T02:32:39.928Z,5.35
2018-01-22T02:35:07.506Z,5.18
2018-01-22T02:37:35.893Z,5.65
2018-01-22T02:40:04.224Z,4.57
2018-01-22T02:42:32.866Z,4.75
2018-01-22T02:45:00.497Z,4.97
2018-01-22T02:47:28.389Z,5.82
2018-01-22T02:49:56.751Z,6.47
2018-01-22T02:52:24.354Z,5.78
2018-01-22T02:54:51.929Z,5.15
2018-01-22T02:57:19.504Z,5.78
2018-01-22T02:59:47.034Z,5.40
2018-01-22T03:02:14.552Z,6.00
2018-01-22T03:04:42.113Z,6.30
2018-01-22T03:07:09.670Z,4.30
2018-01-22T03:09:37.996Z,6.90
2018-01-22T03:12:05.550Z,6.00
2018-01-22T03:14:33.900Z,5.60
2018-01-22T03:17:02.270Z,5.80
2018-01-22T03:19:30.681Z,6.25
2018-01-22T03:21:58.207Z,5.20
2018-01-22T03:24:25.730Z,6.03
2018-01-22T03:26:53.295Z,6.15
2018-01-22T03:29:20.898Z,5.37
2018-01-22T03:31:49.343Z,6.80
2018-01-22T03:34:16.892Z,5.32
2018-01-22T03:36:44.422Z,5.40
2018-01-22T03:39:11.960Z,4.65
2018-01-22T03:41:40.301Z,5.05
2018-01-22T03:44:07.823Z,5.43
2018-01-22T03:46:35.389Z,5.75
2018-01-22T03:49:02.950Z,5.20
2018-01-22T03:51:30.557Z,4.93
2018-01-22T03:53:58.158Z,4.87
2018-01-22T03:56:25.779Z,3.67
2018-01-22T03:58:53.326Z,4.90
2018-01-22T04:01:20.869Z,5.75
2018-01-22T04:03:48.420Z,3.85
2018-01-22T04:06:16.776Z,4.65
2018-01-22T04:08:45.122Z,4.22
2018-01-22T04:11:12.708Z,4.82
2018-01-22T04:13:40.243Z,4.75
2018-01-22T04:16:07.807Z,5.32
2018-01-22T04:18:35.452Z,4.90
2018-01-22T04:21:03.038Z,4.53
2018-01-22T04:23:30.780Z,5.22
2018-01-22T04:25:58.623Z,5.07
2018-01-22T04:28:26.216Z,5.15
2018-01-22T04:30:53.814Z,6.53
2018-01-22T04:33:21.420Z,5.82
2018-01-22T04:35:49.681Z,5.22
2018-01-22T04:38:17.298Z,5.87
2018-01-22T04:40:45.397Z,6.10
2018-01-22T04:43:13.002Z,6.30
2018-01-22T04:45:40.572Z,6.15
2018-01-22T04:48:09.117Z,6.20
2018-01-22T04:50:37.512Z,7.35
2018-01-22T04:53:06.143Z,6.12
2018-01-22T04:55:34.492Z,7.10
2018-01-22T04:58:02.069Z,7.95
2018-01-22T05:00:29.576Z,7.05
2018-01-22T05:02:57.656Z,6.97
2018-01-22T05:05:25.287Z,7.68
2018-01-22T05:07:53.594Z,6.45
2018-01-22T05:10:21.105Z,6.05
2018-01-22T05:12:49.409Z,7.35
2018-01-22T05:15:17.989Z,7.60
2018-01-22T05:17:45.564Z,8.38
2018-01-22T05:20:13.101Z,8.27
2018-01-22T05:22:41.478Z,8.82
2018-01-22T05:25:09.086Z,7.00
2018-01-22T05:27:36.622Z,7.93
2018-01-22T05:30:04.142Z,7.65
2018-01-22T05:32:31.711Z,8.43
2018-01-22T05:35:00.027Z,7.20
2018-01-22T05:37:27.558Z,7.22
2018-01-22T05:39:55.078Z,6.93
2018-01-22T05:42:22.630Z,7.57
2018-01-22T05:44:50.250Z,7.82
2018-01-22T05:47:17.805Z,8.00
2018-01-22T05:49:45.314Z,8.38
2018-01-22T05:52:12.933Z,8.90
2018-01-22T05:54:40.685Z,7.75
2018-01-22T05:57:08.320Z,8.35
2018-01-22T05:59:36.011Z,9.05
2018-01-22T06:02:03.704Z,8.68
2018-01-22T06:04:31.265Z,7.87
2018-01-22T06:06:58.832Z,8.70
2018-01-22T06:09:27.208Z,9.77
2018-01-22T06:11:55.551Z,8.55
2018-01-22T06:14:23.243Z,10.50
2018-01-22T06:16:50.868Z,10.00
2018-01-22T06:19:18.592Z,9.98
2018-01-22T06:21:47.060Z,9.38
2018-01-22T06:24:14.641Z,10.35
2018-01-22T06:26:42.949Z,9.85
2018-01-22T06:29:10.532Z,9.13
2018-01-22T06:31:38.112Z,9.48
2018-01-22T06:34:05.682Z,9.55
2018-01-22T06:36:33.284Z,9.50
2018-01-22T06:39:00.901Z,10.07
2018-01-22T06:41:28.505Z,10.27
2018-01-22T06:43:56.106Z,9.63
2018-01-22T06:46:23.717Z,10.90
2018-01-22T06:48:51.279Z,12.07
2018-01-22T06:51:19.624Z,11.43
2018-01-22T06:53:47.154Z,11.23
2018-01-22T06:56:15.851Z,9.95
2018-01-22T06:58:43.393Z,11.60
2018-01-22T07:01:10.999Z,10.85
2018-01-22T07:03:38.522Z,12.93
2018-01-22T07:06:06.097Z,10.73
2018-01-22T07:08:34.432Z,12.13
2018-01-22T07:11:02.020Z,13.20
2018-01-22T07:13:29.650Z,13.55
2018-01-22T07:15:57.264Z,16.40
2018-01-22T07:18:24.825Z,11.55
2018-01-22T07:20:52.551Z,12.57
2018-01-22T07:23:20.889Z,14.55
2018-01-22T07:25:49.002Z,12.20
2018-01-22T07:28:17.968Z,13.15
2018-01-22T07:30:45.570Z,14.70
2018-01-22T07:33:13.200Z,14.75
2018-01-22T07:35:41.531Z,14.43
2018-01-22T07:38:09.983Z,12.63
2018-01-22T07:40:37.912Z,14.73
2018-01-22T07:43:06.258Z,13.82
2018-01-22T07:45:34.617Z,12.55
2018-01-22T07:48:02.308Z,13.45
2018-01-22T07:50:30.830Z,15.00
2018-01-22T07:52:59.172Z,12.60
2018-01-22T07:55:26.804Z,13.95
2018-01-22T07:57:54.361Z,13.90
2018-01-22T08:00:21.950Z,14.38
2018-01-22T08:02:49.539Z,13.82
2018-01-22T08:05:17.946Z,13.07
2018-01-22T08:07:45.579Z,13.85
2018-01-22T08:10:13.879Z,12.65
2018-01-22T08:12:41.803Z,15.45
2018-01-22T08:15:09.428Z,13.90
2018-01-22T08:17:37.016Z,16.83
2018-01-22T08:20:04.650Z,16.02
2018-01-22T08:22:32.579Z,14.75
2018-01-22T08:25:00.207Z,14.10
2018-01-22T08:27:27.759Z,15.52
2018-01-22T08:29:55.319Z,12.82
2018-01-22T08:32:22.890Z,14.07
2018-01-22T08:34:50.422Z,11.85
2018-01-22T08:37:17.999Z,13.15
2018-01-22T08:39:45.601Z,15.05
2018-01-22T08:42:13.922Z,14.05
2018-01-22T08:44:41.549Z,15.15
2018-01-22T08:47:09.867Z,15.82
2018-01-22T08:49:37.410Z,16.23
2018-01-22T08:52:05.014Z,18.58
2018-01-22T08:54:32.766Z,18.95
2018-01-22T08:57:00.320Z,18.10
2018-01-22T08:59:27.864Z,18.62
2018-01-22T09:01:55.394Z,16.80
2018-01-22T09:04:23.748Z,17.90
2018-01-22T09:06:51.326Z,18.77
2018-01-22T09:09:19.619Z,18.73
2018-01-22T09:11:47.132Z,19.73
2018-01-22T09:14:14.767Z,19.90
2018-01-22T09:16:43.251Z,18.12
2018-01-22T09:19:10.833Z,18.77
2018-01-22T09:21:38.458Z,18.85
2018-01-22T09:24:06.411Z,18.30
2018-01-22T09:26:33.972Z,20.67
2018-01-22T09:29:01.580Z,20.90
2018-01-22T09:31:29.308Z,20.00
2018-01-22T09:33:56.839Z,23.62
2018-01-22T09:36:24.396Z,21.15
2018-01-22T09:38:52.125Z,19.98
2018-01-22T09:41:19.773Z,18.27
2018-01-22T09:43:48.169Z,18.73
2018-01-22T09:46:15.790Z,17.58
2018-01-22T09:48:43.381Z,17.10
2018-01-22T09:51:10.938Z,15.95
2018-01-22T09:53:38.494Z,16.87
2018-01-22T09:56:06.036Z,16.62
2018-01-22T09:58:33.597Z,15.05
2018-01-22T10:01:01.171Z,15.90
2018-01-22T10:03:28.747Z,14.10
2018-01-22T10:05:56.329Z,14.32
2018-01-22T10:08:24.658Z,13.90
2018-01-22T10:10:52.256Z,13.07
2018-01-22T10:13:20.824Z,16.85
2018-01-22T10:15:48.382Z,14.02
2018-01-22T10:18:15.944Z,14.57
2018-01-22T10:20:43.457Z,13.13
2018-01-22T10:23:11.058Z,14.05
2018-01-22T10:25:39.208Z,12.88
2018-01-22T10:28:07.159Z,12.45
2018-01-22T10:30:34.734Z,10.95
2018-01-22T10:33:02.350Z,9.52
2018-01-22T10:35:29.911Z,11.55
2018-01-22T10:37:57.484Z,10.88
2018-01-22T10:40:25.913Z,11.18
2018-01-22T10:42:53.546Z,12.37
2018-01-22T10:45:21.156Z,9.65
2018-01-22T10:47:48.732Z,10.40
2018-01-22T10:50:16.345Z,12.25
2018-01-22T10:52:43.915Z,12.13
2018-01-22T10:55:11.477Z,14.30
2018-01-22T10:57:39.085Z,10.95
2018-01-22T11:00:07.493Z,14.57
2018-01-22T11:02:35.086Z,17.67
2018-01-22T11:05:02.624Z,14.38
2018-01-22T11:07:30.324Z,15.55
2018-01-22T11:09:57.903Z,16.42
2018-01-22T11:12:26.365Z,13.35
2018-01-22T11:14:53.994Z,15.10
2018-01-22T11:17:21.558Z,15.82
2018-01-22T11:19:49.907Z,9.68
2018-01-22T11:22:18.349Z,16.00
2018-01-22T11:24:46.048Z,14.87
2018-01-22T11:27:13.672Z,17.12
2018-01-22T11:29:43.128Z,18.35
2018-01-22T11:32:10.725Z,17.55
2018-01-22T11:34:38.295Z,16.77
2018-01-22T11:37:06.095Z,17.48
2018-01-22T11:39:33.612Z,17.52
2018-01-22T11:42:01.204Z,20.08
2018-01-22T11:44:29.609Z,16.62
2018-01-22T11:46:57.198Z,17.80
2018-01-22T11:49:24.900Z,19.85
2018-01-22T11:51:53.293Z,18.45
2018-01-22T11:54:20.851Z,17.10
2018-01-22T11:56:48.416Z,18.05
2018-01-22T11:59:15.956Z,18.30
2018-01-22T12:01:44.334Z,19.42
2018-01-22T12:04:12.673Z,18.25
2018-01-22T12:06:40.268Z,18.55
2018-01-22T12:09:07.852Z,16.75
2018-01-22T12:11:35.438Z,19.08
2018-01-22T12:14:03.008Z,18.42
2018-01-22T12:16:30.616Z,18.27
2018-01-22T12:18:58.999Z,19.02
2018-01-22T12:21:27.291Z,18.62
2018-01-22T12:23:54.956Z,18.17
2018-01-22T12:26:22.610Z,19.65
2018-01-22T12:28:50.150Z,18.50
2018-01-22T12:31:19.319Z,16.15
2018-01-22T12:33:46.912Z,16.58
2018-01-22T12:36:14.484Z,15.73
2018-01-22T12:38:42.156Z,18.30
2018-01-22T12:41:09.850Z,17.45
2018-01-22T12:43:37.455Z,16.37
2018-01-22T12:46:06.574Z,15.15
2018-01-22T12:48:34.129Z,14.38
2018-01-22T12:51:01.700Z,13.70
2018-01-22T12:53:29.281Z,14.82
2018-01-22T12:55:56.862Z,12.45
2018-01-22T12:58:24.443Z,14.45
2018-01-22T13:00:52.805Z,14.60
2018-01-22T13:03:20.390Z,14.60
2018-01-22T13:05:47.943Z,14.95
2018-01-22T13:08:15.565Z,12.60
2018-01-22T13:10:43.258Z,12.00
2018-01-22T13:13:10.839Z,12.40
2018-01-22T13:15:38.522Z,8.45
2018-01-22T13:18:07.380Z,12.02
2018-01-22T13:20:35.871Z,11.23
2018-01-22T13:23:03.550Z,11.25
2018-01-22T13:25:36.797Z,10.05
2018-01-22T13:28:04.400Z,10.00
2018-01-22T13:30:32.057Z,10.23
2018-01-22T13:32:59.625Z,9.43
2018-01-22T13:35:27.208Z,8.98
2018-01-22T13:37:54.833Z,9.20
2018-01-22T13:40:28.168Z,9.35
2018-01-22T13:42:55.732Z,8.32
2018-01-22T13:45:23.325Z,10.35
2018-01-22T13:47:50.918Z,9.15
2018-01-22T13:50:18.512Z,7.10
2018-01-22T13:52:47.499Z,7.78
2018-01-22T13:55:15.292Z,8.50
2018-01-22T13:57:43.587Z,8.25
2018-01-22T14:00:12.169Z,6.72
2018-01-22T14:02:39.756Z,7.07
2018-01-22T14:05:07.299Z,6.05
2018-01-22T14:07:34.865Z,7.75
2018-01-22T14:10:02.411Z,6.50
2018-01-22T14:12:29.963Z,6.28
2018-01-22T14:14:57.524Z,6.32
2018-01-22T14:17:25.150Z,6.47
2018-01-22T14:19:52.738Z,4.85
2018-01-22T14:22:21.250Z,7.40
2018-01-22T14:24:48.861Z,5.97
2018-01-22T14:27:16.393Z,4.62
2018-01-22T14:29:44.004Z,6.07
2018-01-22T14:32:11.559Z,5.50
2018-01-22T14:34:39.137Z,7.18
2018-01-22T14:37:06.690Z,7.18
2018-01-22T14:39:34.836Z,6.37
2018-01-22T14:42:03.486Z,6.35
2018-01-22T14:44:31.031Z,6.57
2018-01-22T14:46:58.612Z,8.02
2018-01-22T14:49:26.195Z,6.53
2018-01-22T14:51:54.607Z,7.85
2018-01-22T14:54:22.226Z,8.15
2018-01-22T14:56:49.773Z,8.13
2018-01-22T14:59:17.309Z,7.18
2018-01-22T15:01:44.958Z,8.20
2018-01-22T15:04:12.555Z,9.60
2018-01-22T15:06:40.193Z,7.78
2018-01-22T15:09:07.773Z,7.75
2018-01-22T15:11:35.350Z,10.65
2018-01-22T15:14:02.900Z,8.10
2018-01-22T15:16:30.451Z,8.35
2018-01-22T15:18:58.055Z,7.05
2018-01-22T15:21:26.585Z,7.70
2018-01-22T15:23:54.198Z,6.78
2018-01-22T15:26:23.036Z,7.70
2018-01-22T15:28:50.694Z,7.32
2018-01-22T15:31:18.247Z,7.20
2018-01-22T15:33:45.773Z,9.45
2018-01-22T15:36:13.425Z,9.90
2018-01-22T15:38:40.999Z,9.27
2018-01-22T15:41:08.554Z,7.78
2018-01-22T15:43:36.138Z,9.15
2018-01-22T15:46:03.785Z,8.23
2018-01-22T15:48:31.441Z,7.60
2018-01-22T15:50:59.847Z,8.93
2018-01-22T15:53:27.474Z,8.95
2018-01-22T15:55:55.283Z,11.20
2018-01-22T15:58:22.822Z,8.45
2018-01-22T16:00:50.430Z,8.65
2018-01-22T16:03:18.145Z,7.80
2018-01-22T16:05:45.790Z,7.53
2018-01-22T16:08:13.443Z,7.80
2018-01-22T16:10:41.015Z,8.50
2018-01-22T16:13:08.574Z,6.22
2018-01-22T16:15:36.166Z,6.07
2018-01-22T16:18:03.810Z,8.05
2018-01-22T16:20:31.359Z,9.68
2018-01-22T16:22:58.961Z,8.32
2018-01-22T16:25:26.551Z,9.10
2018-01-22T16:27:54.870Z,7.62
2018-01-22T16:30:22.453Z,8.00
2018-01-22T16:32:50.014Z,8.40
2018-01-22T16:35:17.618Z,8.60
2018-01-22T16:37:45.219Z,9.35
2018-01-22T16:40:12.799Z,10.93
2018-01-22T16:42:40.380Z,10.18
2018-01-22T16:45:08.329Z,9.60
2018-01-22T16:47:41.536Z,7.60
2018-01-22T16:50:09.100Z,9.27
2018-01-22T16:52:36.724Z,10.07
2018-01-22T16:55:04.541Z,9.65
2018-01-22T16:57:32.202Z,7.62
2018-01-22T16:59:59.743Z,9.75
2018-01-22T17:02:27.507Z,9.30
2018-01-22T17:04:55.085Z,9.25
2018-01-22T17:07:23.380Z,8.68
2018-01-22T17:09:51.022Z,9.80
2018-01-22T17:12:18.588Z,8.63
2018-01-22T17:14:46.949Z,9.02
2018-01-22T17:17:14.690Z,12.30
2018-01-22T17:19:42.380Z,9.18
2018-01-22T17:22:09.987Z,8.70
2018-01-22T17:24:37.627Z,8.52
2018-01-22T17:27:05.172Z,9.40
2018-01-22T17:29:32.722Z,8.95
2018-01-22T17:32:00.376Z,7.12
2018-01-22T17:34:27.977Z,7.78
2018-01-22T17:36:56.380Z,9.85
2018-01-22T17:39:30.253Z,9.27
2018-01-22T17:41:58.614Z,7.82
2018-01-22T17:44:26.994Z,7.30
2018-01-22T17:46:54.692Z,8.98
2018-01-22T17:49:22.241Z,10.07
2018-01-22T17:51:49.856Z,8.02
2018-01-22T17:54:17.425Z,6.97
2018-01-22T17:56:44.996Z,6.55
2018-01-22T17:59:12.563Z,12.00
2018-01-22T18:01:40.159Z,8.98
2018-01-22T18:04:07.760Z,6.87
2018-01-22T18:06:35.436Z,7.28
2018-01-22T18:09:03.132Z,7.70
2018-01-22T18:11:31.932Z,7.90
2018-01-22T18:14:00.296Z,7.43
2018-01-22T18:16:28.210Z,8.52
2018-01-22T18:18:55.767Z,7.95
2018-01-22T18:21:23.363Z,6.50
2018-01-22T18:23:50.968Z,7.80
2018-01-22T18:26:18.552Z,8.20
2018-01-22T18:28:46.877Z,9.00
2018-01-22T18:31:14.434Z,8.05
2018-01-22T18:33:42.027Z,9.05
2018-01-22T18:36:09.622Z,9.23
2018-01-22T18:38:37.559Z,8.70
2018-01-22T18:41:05.181Z,9.20
2018-01-22T18:43:34.433Z,7.75
2018-01-22T18:46:02.068Z,8.98
2018-01-22T18:48:29.998Z,7.90
2018-01-22T18:50:57.576Z,8.38
2018-01-22T18:53:25.118Z,9.27
2018-01-22T18:55:53.479Z,8.15
2018-01-22T18:58:21.178Z,9.15
2018-01-22T19:00:50.641Z,11.90
2018-01-22T19:03:18.347Z,7.45
2018-01-22T19:05:45.899Z,8.85
2018-01-22T19:08:14.432Z,7.95
2018-01-22T19:10:42.105Z,8.45
2018-01-22T19:13:09.647Z,8.30
2018-01-22T19:15:38.057Z,7.93
2018-01-22T19:18:06.541Z,7.80
2018-01-22T19:20:34.104Z,7.68
2018-01-22T19:23:01.749Z,7.12
2018-01-22T19:25:29.344Z,7.90
2018-01-22T19:27:56.923Z,7.22
2018-01-22T19:30:24.526Z,8.93
2018-01-22T19:32:52.310Z,8.18
2018-01-22T19:35:20.658Z,9.25
2018-01-22T19:37:48.350Z,8.73
2018-01-22T19:40:15.900Z,7.03
2018-01-22T19:42:44.373Z,9.15
2018-01-22T19:45:12.015Z,7.18
2018-01-22T19:47:39.570Z,9.57
2018-01-22T19:50:07.271Z,8.98
2018-01-22T19:52:34.842Z,9.88
2018-01-22T19:55:02.541Z,11.43
2018-01-22T19:57:30.292Z,10.55
2018-01-22T19:59:57.910Z,12.18
2018-01-22T20:02:25.554Z,11.80
2018-01-22T20:04:53.125Z,12.07
2018-01-22T20:07:20.764Z,12.02
2018-01-22T20:09:48.339Z,11.77
2018-01-22T20:12:15.912Z,11.27
2018-01-22T20:14:43.554Z,12.30
2018-01-22T20:17:11.112Z,10.88
2018-01-22T20:19:38.729Z,12.45
2018-01-22T20:22:06.428Z,14.02
2018-01-22T20:24:34.034Z,12.65
2018-01-22T20:27:01.603Z,13.77
2018-01-22T20:29:29.162Z,11.85
2018-01-22T20:31:56.803Z,12.35
2018-01-22T20:34:24.375Z,10.45
2018-01-22T20:36:51.985Z,12.65
2018-01-22T20:39:20.333Z,12.25
2018-01-22T20:41:47.933Z,12.35
2018-01-22T20:44:16.254Z,9.57
2018-01-22T20:46:43.793Z,11.55
2018-01-22T20:49:11.370Z,12.98
2018-01-22T20:51:38.896Z,11.88
2018-01-22T20:54:06.463Z,11.95
2018-01-22T20:56:34.056Z,8.55
2018-01-22T21:01:52.070Z,10.02
2018-01-22T21:04:19.687Z,11.20
2018-01-22T21:06:48.091Z,8.77
2018-01-22T21:09:15.739Z,12.13
2018-01-22T21:11:43.365Z,10.98
2018-01-22T21:14:10.921Z,11.32
2018-01-22T21:16:38.516Z,11.55
2018-01-22T21:19:06.883Z,11.57
2018-01-22T21:21:34.417Z,10.15
2018-01-22T21:24:02.036Z,10.40
2018-01-22T21:26:30.066Z,11.45
2018-01-22T21:28:57.669Z,11.05
2018-01-22T21:31:26.047Z,10.80
2018-01-22T21:33:54.385Z,11.18
2018-01-22T21:36:21.949Z,11.12
2018-01-22T21:38:49.503Z,11.73
2018-01-22T21:41:17.084Z,10.65
2018-01-22T21:43:44.621Z,10.75
2018-01-22T21:46:12.272Z,10.68
2018-01-22T21:48:39.808Z,11.77
2018-01-22T21:51:07.436Z,13.27
2018-01-22T21:53:35.048Z,10.52
2018-01-22T21:56:02.576Z,11.75
2018-01-22T21:58:30.137Z,12.48
2018-01-22T22:00:57.728Z,11.80
2018-01-22T22:03:25.283Z,12.20
2018-01-22T22:05:52.890Z,11.80
2018-01-22T22:08:20.482Z,11.55
2018-01-22T22:10:48.016Z,11.00
2018-01-22T22:13:16.417Z,11.68
2018-01-22T22:15:43.965Z,12.43
2018-01-22T22:18:12.302Z,11.35
2018-01-22T22:20:39.914Z,11.00
2018-01-22T22:23:07.484Z,12.90
2018-01-22T22:25:35.063Z,13.52
2018-01-22T22:28:02.630Z,10.88
2018-01-22T22:30:31.048Z,12.07
2018-01-22T22:32:58.770Z,13.40
2018-01-22T22:35:26.349Z,13.40
2018-01-22T22:37:53.906Z,13.32
2018-01-22T22:40:21.555Z,11.98
2018-01-22T22:42:49.075Z,13.82
2018-01-22T22:45:17.490Z,13.55
2018-01-22T22:47:45.062Z,14.95
2018-01-22T22:50:13.583Z,12.95
2018-01-22T22:52:41.905Z,12.52
2018-01-22T22:55:09.661Z,13.20
2018-01-22T22:57:37.425Z,13.65
2018-01-22T23:00:05.123Z,12.90
2018-01-22T23:02:32.683Z,13.30
2018-01-22T23:05:00.223Z,13.55
2018-01-22T23:07:27.804Z,15.10
2018-01-22T23:09:55.349Z,11.60
2018-01-22T23:12:22.953Z,12.80
2018-01-22T23:14:50.532Z,12.90
2018-01-22T23:17:18.106Z,13.15
2018-01-22T23:19:45.667Z,11.93
2018-01-22T23:22:13.266Z,13.15
2018-01-22T23:24:41.727Z,12.65
2018-01-22T23:27:09.336Z,13.05
2018-01-22T23:29:37.698Z,13.45
2018-01-22T23:32:05.280Z,13.38
2018-01-22T23:34:32.957Z,13.38
2018-01-22T23:37:00.527Z,13.35
2018-01-22T23:39:28.084Z,12.80
2018-01-22T23:41:55.704Z,11.65
2018-01-22T23:44:23.258Z,14.35
2018-01-22T23:46:50.835Z,13.13
2018-01-22T23:49:18.489Z,11.55
2018-01-22T23:51:46.079Z,14.45
2018-01-22T23:54:20.470Z,10.82
2018-01-22T23:56:48.090Z,11.73
2018-01-22T23:59:15.716Z,12.80
